createdAt,value
2022-12-20T00:02:15.677Z,99567.09
2022-12-20T00:04:45.517Z,99564.44
2022-12-20T00:07:15.228Z,99560.63
2022-12-20T00:09:45.031Z,99562.50
2022-12-20T00:12:14.718Z,99566.75
2022-12-20T00:14:47.481Z,99563.94
2022-12-20T00:17:17.246Z,99560.81
2022-12-20T00:19:48.311Z,99574.72
2022-12-20T00:22:18.022Z,99564.53
2022-12-20T00:24:47.760Z,99556.53
2022-12-20T00:27:17.437Z,99562.00
2022-12-20T00:29:49.679Z,99569.06
2022-12-20T00:32:19.355Z,99561.56
2022-12-20T00:34:49.414Z,99565.91
2022-12-20T00:37:19.161Z,99552.59
2022-12-20T00:39:49.270Z,99559.53
2022-12-20T00:42:18.929Z,99562.97
2022-12-20T00:44:51.213Z,99556.03
2022-12-20T00:47:21.047Z,99563.91
2022-12-20T00:49:50.754Z,99555.19
2022-12-20T00:52:20.606Z,99547.56
2022-12-20T00:54:50.364Z,99546.84
2022-12-20T00:57:20.203Z,99547.13
2022-12-20T00:59:52.538Z,99543.28
2022-12-20T01:02:22.645Z,99545.47
2022-12-20T01:04:52.812Z,99537.41
2022-12-20T01:07:23.510Z,99537.22
2022-12-20T01:09:54.549Z,99553.22
2022-12-20T01:12:24.272Z,99551.72
2022-12-20T01:14:56.592Z,99564.75
2022-12-20T01:17:26.283Z,99548.69
2022-12-20T01:19:56.225Z,99554.13
2022-12-20T01:22:25.935Z,99550.38
2022-12-20T01:24:55.660Z,99553.53
2022-12-20T01:27:25.417Z,99556.69
2022-12-20T01:29:58.126Z,99555.94
2022-12-20T01:32:27.856Z,99550.47
2022-12-20T01:34:57.615Z,99535.69
2022-12-20T01:37:27.326Z,99537.63
2022-12-20T01:39:57.043Z,99548.53
2022-12-20T01:42:26.787Z,99539.13
2022-12-20T01:45:02.845Z,99543.50
2022-12-20T01:47:35.987Z,99537.78
2022-12-20T01:50:07.379Z,99532.06
2022-12-20T01:52:42.527Z,99521.97
2022-12-20T01:55:16.488Z,99533.16
2022-12-20T01:57:51.798Z,99525.59
2022-12-20T02:00:24.590Z,99529.34
2022-12-20T02:02:54.482Z,99534.84
2022-12-20T02:05:26.212Z,99536.19
2022-12-20T02:07:59.224Z,99555.34
2022-12-20T02:10:41.076Z,99538.81
2022-12-20T02:13:17.174Z,99549.00
2022-12-20T02:15:57.252Z,99541.47
2022-12-20T02:18:32.343Z,99547.88
2022-12-20T02:21:26.043Z,99548.78
2022-12-20T02:24:37.131Z,99543.63
2022-12-20T02:27:43.934Z,99533.97
2022-12-20T02:30:19.198Z,99537.19
2022-12-20T02:32:56.253Z,99529.56
2022-12-20T02:35:29.821Z,99524.78
2022-12-20T02:38:04.017Z,99527.44
2022-12-20T02:40:41.729Z,99528.38
2022-12-20T02:43:34.399Z,99525.22
2022-12-20T02:46:04.666Z,99528.81
2022-12-20T02:48:38.448Z,99513.84
2022-12-20T02:51:09.173Z,99516.19
2022-12-20T02:53:42.174Z,99513.97
2022-12-20T02:56:19.993Z,99523.63
2022-12-20T02:58:54.651Z,99521.06
2022-12-20T03:01:32.147Z,99528.81
2022-12-20T03:04:03.785Z,99512.63
2022-12-20T03:06:34.112Z,99518.09
2022-12-20T03:09:04.478Z,99526.06
2022-12-20T03:11:37.268Z,99536.44
2022-12-20T03:14:07.127Z,99528.44
2022-12-20T03:16:40.173Z,99522.31
2022-12-20T03:19:10.079Z,99519.41
2022-12-20T03:21:39.814Z,99514.22
2022-12-20T03:24:11.200Z,99503.09
2022-12-20T03:26:40.957Z,99500.94
2022-12-20T03:29:11.065Z,99494.28
2022-12-20T03:31:43.860Z,99494.03
2022-12-20T03:34:14.036Z,99492.50
2022-12-20T03:36:44.147Z,99491.22
2022-12-20T03:39:14.069Z,99487.50
2022-12-20T03:41:44.055Z,99488.81
2022-12-20T03:44:19.525Z,99501.09
2022-12-20T03:46:52.037Z,99495.38
2022-12-20T03:49:21.753Z,99492.81
2022-12-20T03:51:53.937Z,99504.69
2022-12-20T03:54:23.731Z,99505.59
2022-12-20T03:57:15.402Z,99489.84
2022-12-20T03:59:46.443Z,99496.56
2022-12-20T04:02:21.595Z,99487.72
2022-12-20T04:04:52.204Z,99484.97
2022-12-20T04:07:22.433Z,99473.22
2022-12-20T04:09:52.205Z,99481.03
2022-12-20T04:12:21.997Z,99479.00
2022-12-20T04:14:51.819Z,99474.53
2022-12-20T04:17:24.116Z,99456.94
2022-12-20T04:19:54.394Z,99461.06
2022-12-20T04:22:24.563Z,99465.19
2022-12-20T04:25:04.368Z,99446.84
2022-12-20T04:27:39.324Z,99442.94
2022-12-20T04:30:12.416Z,99447.94
2022-12-20T04:32:44.731Z,99431.19
2022-12-20T04:35:14.822Z,99435.81
2022-12-20T04:37:45.748Z,99433.25
2022-12-20T04:40:17.325Z,99429.38
2022-12-20T04:42:52.780Z,99431.56
2022-12-20T04:45:23.196Z,99431.47
2022-12-20T04:47:57.377Z,99424.38
2022-12-20T04:50:36.578Z,99424.66
2022-12-20T04:53:18.775Z,99427.38
2022-12-20T04:55:48.539Z,99433.72
2022-12-20T04:58:18.695Z,99428.50
2022-12-20T05:00:49.024Z,99425.00
2022-12-20T05:03:29.205Z,99441.72
2022-12-20T05:05:59.542Z,99453.72
2022-12-20T05:08:29.825Z,99446.03
2022-12-20T05:11:00.271Z,99445.31
2022-12-20T05:13:30.378Z,99433.38
2022-12-20T05:16:01.021Z,99430.28
2022-12-20T05:18:36.049Z,99412.19
2022-12-20T05:21:21.870Z,99410.34
2022-12-20T05:24:06.767Z,99416.31
2022-12-20T05:26:49.012Z,99418.75
2022-12-20T05:29:21.195Z,99422.75
2022-12-20T05:31:51.194Z,99406.09
2022-12-20T05:34:23.886Z,99410.19
2022-12-20T05:36:56.471Z,99415.34
2022-12-20T05:39:29.941Z,99408.06
2022-12-20T05:42:03.415Z,99420.78
2022-12-20T05:44:33.131Z,99418.72
2022-12-20T05:47:03.055Z,99420.31
2022-12-20T05:49:37.302Z,99405.03
2022-12-20T05:52:10.931Z,99400.41
2022-12-20T05:54:42.679Z,99396.19
2022-12-20T05:57:18.523Z,99394.19
2022-12-20T05:59:49.430Z,99387.06
2022-12-20T06:02:21.694Z,99392.22
2022-12-20T06:04:59.251Z,99391.69
2022-12-20T06:07:31.810Z,99390.28
2022-12-20T06:10:02.922Z,99400.09
2022-12-20T06:12:51.152Z,99406.03
2022-12-20T06:15:21.327Z,99412.06
2022-12-20T06:17:51.187Z,99416.94
2022-12-20T06:20:23.686Z,99407.44
2022-12-20T06:22:55.363Z,99412.50
2022-12-20T06:25:25.071Z,99412.69
2022-12-20T06:27:55.962Z,99407.72
2022-12-20T06:30:33.392Z,99412.78
2022-12-20T06:33:15.545Z,99410.72
2022-12-20T06:35:47.876Z,99406.44
2022-12-20T06:38:17.667Z,99405.94
2022-12-20T06:40:47.753Z,99402.84
2022-12-20T06:43:17.619Z,99410.06
2022-12-20T06:45:47.734Z,99407.78
2022-12-20T06:48:17.564Z,99421.00
2022-12-20T06:50:55.787Z,99420.88
2022-12-20T06:53:27.323Z,99436.94
2022-12-20T06:55:57.083Z,99424.13
2022-12-20T06:58:26.878Z,99433.03
2022-12-20T07:00:57.874Z,99418.50
2022-12-20T07:03:27.820Z,99424.13
2022-12-20T07:06:00.584Z,99446.63
2022-12-20T07:08:30.390Z,99438.84
2022-12-20T07:11:06.466Z,99433.34
2022-12-20T07:13:36.498Z,99433.25
2022-12-20T07:16:08.347Z,99438.75
2022-12-20T07:18:38.232Z,99415.22
2022-12-20T07:21:10.868Z,99423.44
2022-12-20T07:23:40.637Z,99438.59
2022-12-20T07:26:11.307Z,99425.50
2022-12-20T07:28:41.027Z,99426.84
2022-12-20T07:31:10.897Z,99413.97
2022-12-20T07:33:40.814Z,99413.69
2022-12-20T07:36:15.974Z,99411.84
2022-12-20T07:38:45.912Z,99416.25
2022-12-20T07:41:17.833Z,99395.63
2022-12-20T07:43:48.002Z,99402.72
2022-12-20T07:46:19.049Z,99400.31
2022-12-20T07:48:48.880Z,99412.47
2022-12-20T07:51:26.528Z,99421.06
2022-12-20T07:54:00.660Z,99414.22
2022-12-20T07:56:36.037Z,99404.19
2022-12-20T07:59:12.405Z,99398.56
2022-12-20T08:01:44.187Z,99389.31
2022-12-20T08:04:18.541Z,99389.63
2022-12-20T08:06:53.155Z,99390.34
2022-12-20T08:09:23.086Z,99373.91
2022-12-20T08:11:53.972Z,99388.34
2022-12-20T08:14:24.427Z,99387.84
2022-12-20T08:16:54.196Z,99393.53
2022-12-20T08:19:30.092Z,99399.06
2022-12-20T08:22:04.523Z,99390.16
2022-12-20T08:24:34.333Z,99390.09
2022-12-20T08:27:04.119Z,99397.88
2022-12-20T08:29:33.769Z,99400.53
2022-12-20T08:32:03.504Z,99393.84
2022-12-20T08:34:33.194Z,99393.41
2022-12-20T08:37:12.436Z,99395.53
2022-12-20T08:39:44.389Z,99387.25
2022-12-20T08:42:14.844Z,99375.78
2022-12-20T08:44:44.797Z,99380.59
2022-12-20T08:47:14.509Z,99381.66
2022-12-20T08:49:47.842Z,99381.78
2022-12-20T08:52:20.551Z,99387.19
2022-12-20T08:54:50.391Z,99370.16
2022-12-20T08:57:20.103Z,99375.00
2022-12-20T08:59:49.794Z,99375.09
2022-12-20T09:02:19.877Z,99372.94
2022-12-20T09:04:49.683Z,99377.31
2022-12-20T09:07:21.976Z,99367.28
2022-12-20T09:09:51.645Z,99359.84
2022-12-20T09:12:21.356Z,99360.06
2022-12-20T09:14:51.079Z,99353.41
2022-12-20T09:17:21.230Z,99355.50
2022-12-20T09:19:51.763Z,99355.84
2022-12-20T09:22:24.075Z,99366.22
2022-12-20T09:24:53.759Z,99372.22
2022-12-20T09:27:23.426Z,99372.91
2022-12-20T09:29:53.486Z,99378.69
2022-12-20T09:32:23.272Z,99375.06
2022-12-20T09:34:52.967Z,99388.19
2022-12-20T09:37:25.223Z,99392.22
2022-12-20T09:39:54.887Z,99388.69
2022-12-20T09:42:28.505Z,99384.97
2022-12-20T09:45:03.899Z,99385.22
2022-12-20T09:47:36.734Z,99373.69
2022-12-20T09:50:09.035Z,99366.28
2022-12-20T09:52:55.780Z,99379.88
2022-12-20T09:55:34.399Z,99383.34
2022-12-20T09:58:35.681Z,99376.22
2022-12-20T10:01:24.421Z,99384.91
2022-12-20T10:03:55.342Z,99383.44
2022-12-20T10:06:35.105Z,99384.72
2022-12-20T10:09:12.230Z,99395.56
2022-12-20T10:11:58.268Z,99389.69
2022-12-20T10:14:42.423Z,99374.84
2022-12-20T10:17:17.248Z,99371.97
2022-12-20T10:20:06.618Z,99360.03
2022-12-20T10:22:43.580Z,99360.47
2022-12-20T10:25:23.051Z,99359.03
2022-12-20T10:27:55.508Z,99340.50
2022-12-20T10:30:27.313Z,99338.69
2022-12-20T10:32:59.223Z,99336.56
2022-12-20T10:35:32.275Z,99337.50
2022-12-20T10:38:08.904Z,99334.78
2022-12-20T10:41:19.470Z,99332.84
2022-12-20T10:43:45.082Z,99328.56
2022-12-20T10:46:17.509Z,99317.63
2022-12-20T10:48:48.801Z,99316.25
2022-12-20T10:51:20.572Z,99307.19
2022-12-20T10:53:57.285Z,99297.59
2022-12-20T10:56:31.602Z,99284.19
2022-12-20T10:59:03.819Z,99263.38
2022-12-20T11:01:36.600Z,99272.97
2022-12-20T11:04:09.738Z,99264.50
2022-12-20T11:06:45.452Z,99262.31
2022-12-20T11:09:32.444Z,99260.94
2022-12-20T11:12:10.570Z,99261.75
2022-12-20T11:14:41.921Z,99260.63
2022-12-20T11:17:24.730Z,99255.94
2022-12-20T11:20:08.212Z,99256.22
2022-12-20T11:22:51.185Z,99249.03
2022-12-20T11:25:33.378Z,99248.16
2022-12-20T11:28:27.897Z,99249.00
2022-12-20T11:31:09.435Z,99244.28
2022-12-20T11:34:00.964Z,99243.53
2022-12-20T11:36:44.661Z,99244.09
2022-12-20T11:39:22.488Z,99239.97
2022-12-20T11:42:04.950Z,99254.22
2022-12-20T11:45:03.442Z,99257.84
2022-12-20T11:47:55.861Z,99251.81
2022-12-20T11:50:46.188Z,99244.97
2022-12-20T11:53:21.676Z,99249.09
2022-12-20T11:55:56.235Z,99247.22
2022-12-20T11:58:30.453Z,99241.47
2022-12-20T12:01:07.129Z,99242.84
2022-12-20T12:03:39.957Z,99244.22
2022-12-20T12:06:13.658Z,99238.19
2022-12-20T12:08:50.060Z,99220.09
2022-12-20T12:12:04.478Z,99216.53
2022-12-20T12:14:21.588Z,99203.66
2022-12-20T12:16:56.960Z,99200.38
2022-12-20T12:19:29.600Z,99202.81
2022-12-20T12:22:05.550Z,99193.28
2022-12-20T12:24:39.281Z,99206.94
2022-12-20T12:27:25.274Z,99202.84
2022-12-20T12:29:56.679Z,99212.38
2022-12-20T12:32:35.149Z,99208.47
2022-12-20T12:35:20.483Z,99217.19
2022-12-20T12:38:05.492Z,99211.72
2022-12-20T12:41:00.261Z,99201.34
2022-12-20T12:43:52.445Z,99199.97
2022-12-20T12:46:28.836Z,99198.69
2022-12-20T12:49:05.873Z,99193.19
2022-12-20T12:51:38.916Z,99194.31
2022-12-20T12:54:22.994Z,99189.94
2022-12-20T12:56:55.663Z,99189.41
2022-12-20T12:59:53.140Z,99176.78
2022-12-20T13:02:35.706Z,99178.44
2022-12-20T13:05:36.642Z,99166.91
2022-12-20T13:08:07.380Z,99148.31
2022-12-20T13:11:02.652Z,99157.59
2022-12-20T13:13:32.436Z,99163.06
2022-12-20T13:17:09.521Z,99176.22
2022-12-20T13:19:33.800Z,99177.03
2022-12-20T13:22:22.378Z,99168.25
2022-12-20T13:24:57.922Z,99187.41
2022-12-20T13:27:31.108Z,99185.47
2022-12-20T13:30:22.810Z,99177.59
2022-12-20T13:33:01.577Z,99175.13
2022-12-20T13:35:34.020Z,99180.06
2022-12-20T13:38:08.154Z,99167.75
2022-12-20T13:40:42.367Z,99168.28
2022-12-20T13:43:28.004Z,99181.66
2022-12-20T13:46:00.604Z,99185.47
2022-12-20T13:48:34.379Z,99183.81
2022-12-20T13:51:04.986Z,99175.41
2022-12-20T13:53:37.693Z,99173.22
2022-12-20T13:56:37.376Z,99155.41
2022-12-20T13:59:11.540Z,99162.53
2022-12-20T14:01:51.333Z,99157.06
2022-12-20T14:04:22.419Z,99148.31
2022-12-20T14:06:56.904Z,99145.84
2022-12-20T14:09:35.107Z,99150.22
2022-12-20T14:12:10.603Z,99145.00
2022-12-20T14:14:40.883Z,99147.50
2022-12-20T14:17:21.020Z,99149.91
2022-12-20T14:19:50.668Z,99153.22
2022-12-20T14:22:20.415Z,99158.94
2022-12-20T14:24:52.880Z,99163.56
2022-12-20T14:27:22.531Z,99157.00
2022-12-20T14:29:52.249Z,99142.22
2022-12-20T14:32:22.927Z,99137.28
2022-12-20T14:34:53.945Z,99123.59
2022-12-20T14:37:32.423Z,99130.09
2022-12-20T14:40:07.292Z,99138.25
2022-12-20T14:42:38.390Z,99125.69
2022-12-20T14:45:19.439Z,99130.06
2022-12-20T14:47:55.373Z,99137.72
2022-12-20T14:50:27.840Z,99136.63
2022-12-20T14:52:58.621Z,99125.13
2022-12-20T14:55:36.539Z,99117.50
2022-12-20T14:58:25.903Z,99121.34
2022-12-20T15:01:00.361Z,99121.78
2022-12-20T15:03:31.212Z,99131.69
2022-12-20T15:06:01.988Z,99132.25
2022-12-20T15:08:33.297Z,99123.41
2022-12-20T15:11:18.575Z,99123.53
2022-12-20T15:13:56.127Z,99114.75
2022-12-20T15:16:27.991Z,99118.03
2022-12-20T15:18:59.297Z,99110.28
2022-12-20T15:21:32.178Z,99107.53
2022-12-20T15:24:07.864Z,99106.81
2022-12-20T15:26:40.394Z,99098.72
2022-12-20T15:29:10.442Z,99105.53
2022-12-20T15:31:40.079Z,99094.09
2022-12-20T15:34:16.629Z,99096.25
2022-12-20T15:36:46.718Z,99091.63
2022-12-20T15:39:16.463Z,99096.28
2022-12-20T15:41:51.279Z,99095.19
2022-12-20T15:44:23.854Z,99089.19
2022-12-20T15:46:54.253Z,99090.25
2022-12-20T15:49:25.904Z,99079.88
2022-12-20T15:51:56.876Z,99095.16
2022-12-20T15:54:29.790Z,99082.06
2022-12-20T15:57:04.290Z,99090.81
2022-12-20T16:00:04.200Z,99102.31
2022-12-20T16:02:26.031Z,99095.16
2022-12-20T16:04:56.522Z,99090.19
2022-12-20T16:07:26.419Z,99106.56
2022-12-20T16:09:56.473Z,99105.38
2022-12-20T16:12:30.736Z,99110.22
2022-12-20T16:15:00.675Z,99109.72
2022-12-20T16:17:30.281Z,99099.28
2022-12-20T16:19:59.899Z,99116.75
2022-12-20T16:22:29.575Z,99116.13
2022-12-20T16:24:59.102Z,99110.47
2022-12-20T16:27:31.344Z,99105.34
2022-12-20T16:30:01.413Z,99107.25
2022-12-20T16:32:31.032Z,99098.81
2022-12-20T16:35:03.506Z,99103.81
2022-12-20T16:37:37.320Z,99105.34
2022-12-20T16:40:10.379Z,99103.13
2022-12-20T16:42:42.522Z,99096.84
2022-12-20T16:45:18.699Z,99105.38
2022-12-20T16:47:49.023Z,99095.03
2022-12-20T16:50:19.689Z,99100.50
2022-12-20T16:52:50.426Z,99088.53
2022-12-20T16:55:23.658Z,99102.22
2022-12-20T16:57:56.705Z,99104.38
2022-12-20T17:00:28.873Z,99102.19
2022-12-20T17:02:59.311Z,99114.94
2022-12-20T17:05:31.568Z,99102.44
2022-12-20T17:08:01.416Z,99110.66
2022-12-20T17:10:31.362Z,99113.63
2022-12-20T17:13:05.928Z,99098.59
2022-12-20T17:15:36.999Z,99107.38
2022-12-20T17:18:06.978Z,99107.63
2022-12-20T17:20:37.083Z,99085.25
2022-12-20T17:25:54.494Z,99094.06
2022-12-20T17:28:26.976Z,99101.63
2022-12-20T17:30:57.887Z,99103.75
2022-12-20T17:33:29.444Z,99088.00
2022-12-20T17:35:59.322Z,99103.56
2022-12-20T17:38:29.425Z,99092.53
2022-12-20T17:40:59.042Z,99095.34
2022-12-20T17:43:31.267Z,99100.81
2022-12-20T17:46:00.962Z,99107.31
2022-12-20T17:48:34.731Z,99113.13
2022-12-20T17:51:06.373Z,99106.19
2022-12-20T17:53:35.941Z,99100.72
2022-12-20T17:56:05.709Z,99078.34
2022-12-20T17:58:37.837Z,99098.00
2022-12-20T18:01:08.191Z,99098.53
2022-12-20T18:04:02.748Z,99106.94
2022-12-20T18:06:29.044Z,99100.91
2022-12-20T18:09:00.002Z,99096.25
2022-12-20T18:11:31.494Z,99093.03
2022-12-20T18:14:04.281Z,99081.84
2022-12-20T18:16:35.939Z,99082.91
2022-12-20T18:19:05.607Z,99066.34
2022-12-20T18:21:35.615Z,99082.16
2022-12-20T18:24:05.651Z,99084.31
2022-12-20T18:26:35.741Z,99080.59
2022-12-20T18:29:08.008Z,99083.66
2022-12-20T18:31:38.184Z,99089.66
2022-12-20T18:34:08.210Z,99091.00
2022-12-20T18:36:40.309Z,99093.28
2022-12-20T18:39:11.393Z,99089.13
2022-12-20T18:41:43.068Z,99080.72
2022-12-20T18:44:15.464Z,99065.16
2022-12-20T18:46:45.017Z,99060.06
2022-12-20T18:49:14.804Z,99065.00
2022-12-20T18:51:44.338Z,99052.09
2022-12-20T18:54:16.855Z,99051.38
2022-12-20T18:56:46.441Z,99052.16
2022-12-20T18:59:18.597Z,99052.09
2022-12-20T19:01:48.241Z,99059.91
2022-12-20T19:04:24.345Z,99057.00
2022-12-20T19:06:55.023Z,99046.06
2022-12-20T19:09:24.751Z,99046.66
2022-12-20T19:11:57.448Z,99055.22
2022-12-20T19:14:30.442Z,99053.25
2022-12-20T19:17:00.211Z,99046.75
2022-12-20T19:19:30.234Z,99053.41
2022-12-20T19:21:59.833Z,99049.41
2022-12-20T19:24:29.487Z,99052.91
2022-12-20T19:26:59.097Z,99052.22
2022-12-20T19:29:31.280Z,99051.22
2022-12-20T19:32:01.146Z,99058.31
2022-12-20T19:34:31.688Z,99057.44
2022-12-20T19:37:01.613Z,99053.66
2022-12-20T19:39:31.210Z,99053.16
2022-12-20T19:42:23.071Z,99053.72
2022-12-20T19:44:53.061Z,99061.94
2022-12-20T19:47:22.639Z,99044.50
2022-12-20T19:49:52.207Z,99051.06
2022-12-20T19:52:29.665Z,99045.03
2022-12-20T19:54:59.373Z,99046.16
2022-12-20T19:57:29.098Z,99034.69
2022-12-20T20:00:01.273Z,99025.75
2022-12-20T20:02:31.132Z,99027.63
2022-12-20T20:05:01.250Z,99036.38
2022-12-20T20:07:31.181Z,99036.03
2022-12-20T20:10:00.767Z,99041.03
2022-12-20T20:12:30.281Z,99036.03
2022-12-20T20:15:02.626Z,99039.59
2022-12-20T20:17:32.540Z,99047.22
2022-12-20T20:20:02.136Z,99041.75
2022-12-20T20:22:31.977Z,99045.06
2022-12-20T20:25:01.571Z,99054.97
2022-12-20T20:27:31.174Z,99050.63
2022-12-20T20:30:03.390Z,99041.41
2022-12-20T20:32:34.035Z,99041.94
2022-12-20T20:35:03.658Z,99032.66
2022-12-20T20:37:33.251Z,99031.63
2022-12-20T20:40:03.099Z,99030.59
2022-12-20T20:42:32.701Z,99025.66
2022-12-20T20:45:04.992Z,99029.75
2022-12-20T20:47:34.579Z,99028.38
2022-12-20T20:50:04.138Z,99027.81
2022-12-20T20:52:33.671Z,99023.44
2022-12-20T20:55:03.215Z,99023.19
2022-12-20T20:57:33.059Z,99026.97
2022-12-20T21:00:05.440Z,99030.56
2022-12-20T21:02:35.424Z,99019.63
2022-12-20T21:05:58.704Z,99044.78
2022-12-20T21:07:55.178Z,99029.91
2022-12-20T21:10:24.927Z,99031.00
2022-12-20T21:12:54.682Z,99030.47
2022-12-20T21:15:28.062Z,99026.84
2022-12-20T21:17:57.790Z,99027.22
2022-12-20T21:20:27.342Z,99021.44
2022-12-20T21:22:57.343Z,99025.25
2022-12-20T21:25:26.912Z,99022.03
2022-12-20T21:27:56.602Z,99031.59
2022-12-20T21:30:28.928Z,99027.53
2022-12-20T21:32:58.588Z,99034.56
2022-12-20T21:35:28.573Z,99028.56
2022-12-20T21:37:58.131Z,99023.63
2022-12-20T21:40:27.715Z,99021.16
2022-12-20T21:42:57.283Z,99026.63
2022-12-20T21:45:31.372Z,99018.69
2022-12-20T21:48:03.470Z,99018.19
2022-12-20T21:50:33.280Z,99015.38
2022-12-20T21:53:02.865Z,99018.94
2022-12-20T21:55:32.390Z,99018.66
2022-12-20T21:58:01.976Z,99028.41
2022-12-20T22:00:34.219Z,99018.63
2022-12-20T22:03:04.002Z,99013.97
2022-12-20T22:05:33.664Z,99019.94
2022-12-20T22:08:03.305Z,99014.50
2022-12-20T22:10:32.919Z,99023.03
2022-12-20T22:13:02.538Z,99028.63
2022-12-20T22:15:34.918Z,99040.31
2022-12-20T22:18:04.611Z,99030.47
2022-12-20T22:20:35.100Z,99031.06
2022-12-20T22:23:05.513Z,99026.25
2022-12-20T22:25:38.299Z,99027.28
2022-12-20T22:28:08.483Z,99023.34
2022-12-20T22:30:43.250Z,99026.81
2022-12-20T22:33:12.870Z,99028.72
2022-12-20T22:35:42.482Z,99025.72
2022-12-20T22:38:12.029Z,99039.91
2022-12-20T22:40:41.568Z,99028.47
2022-12-20T22:43:11.579Z,99021.31
2022-12-20T22:45:43.769Z,99029.59
2022-12-20T22:48:13.321Z,99030.03
2022-12-20T22:50:42.895Z,99024.06
2022-12-20T22:53:12.616Z,99021.31
2022-12-20T22:55:42.271Z,99012.09
2022-12-20T22:58:11.894Z,99013.41
2022-12-20T23:00:44.039Z,99012.28
2022-12-20T23:03:13.718Z,99015.78
2022-12-20T23:05:43.749Z,99009.81
2022-12-20T23:08:13.286Z,99010.88
2022-12-20T23:10:55.537Z,99010.31
2022-12-20T23:13:37.790Z,99012.53
2022-12-20T23:16:10.049Z,99022.44
2022-12-20T23:18:39.630Z,99021.16
2022-12-20T23:21:21.870Z,99006.53
2022-12-20T23:23:55.866Z,99012.28
2022-12-20T23:26:26.496Z,99016.94
2022-12-20T23:28:56.063Z,99014.31
2022-12-20T23:31:28.578Z,99003.06
2022-12-20T23:33:58.177Z,98997.72
2022-12-20T23:36:28.105Z,98994.16
2022-12-20T23:38:57.876Z,98990.97
2022-12-20T23:41:27.472Z,98985.59
2022-12-20T23:43:57.053Z,98980.59
2022-12-20T23:46:29.433Z,98987.34
2022-12-20T23:48:59.026Z,98993.34
2022-12-20T23:51:28.568Z,98989.16
2022-12-20T23:53:58.150Z,98996.47
2022-12-20T23:56:27.715Z,98982.03
2022-12-20T23:58:57.928Z,98983.03
